sensor_id;sensor_type;location;lat;lon;timestamp;P1;durP1;ratioP1;P2;durP2;ratioP2
54545;SDS011;40444;45.184;9.850;2022-12-18T00:00:04;66.30;;;37.50;;
54545;SDS011;40444;45.184;9.850;2022-12-18T00:02:39;69.00;;;36.25;;
54545;SDS011;40444;45.184;9.850;2022-12-18T00:05:08;57.40;;;34.40;;
54545;SDS011;40444;45.184;9.850;2022-12-18T00:07:37;62.50;;;35.85;;
54545;SDS011;40444;45.184;9.850;2022-12-18T00:10:05;61.95;;;33.95;;
54545;SDS011;40444;45.184;9.850;2022-12-18T00:12:34;59.75;;;34.97;;
54545;SDS011;40444;45.184;9.850;2022-12-18T00:15:03;60.80;;;33.55;;
54545;SDS011;40444;45.184;9.850;2022-12-18T00:17:32;56.10;;;33.97;;
54545;SDS011;40444;45.184;9.850;2022-12-18T00:20:00;59.83;;;33.28;;
54545;SDS011;40444;45.184;9.850;2022-12-18T00:22:28;59.83;;;34.42;;
54545;SDS011;40444;45.184;9.850;2022-12-18T00:24:56;59.70;;;35.13;;
54545;SDS011;40444;45.184;9.850;2022-12-18T00:27:25;60.95;;;33.22;;
54545;SDS011;40444;45.184;9.850;2022-12-18T00:29:53;59.50;;;33.83;;
54545;SDS011;40444;45.184;9.850;2022-12-18T00:32:21;60.38;;;33.67;;
54545;SDS011;40444;45.184;9.850;2022-12-18T00:34:50;62.30;;;33.22;;
54545;SDS011;40444;45.184;9.850;2022-12-18T00:37:19;62.17;;;34.05;;
54545;SDS011;40444;45.184;9.850;2022-12-18T00:39:50;64.68;;;35.13;;
54545;SDS011;40444;45.184;9.850;2022-12-18T00:42:19;58.20;;;35.15;;
54545;SDS011;40444;45.184;9.850;2022-12-18T00:45:07;56.97;;;31.85;;
54545;SDS011;40444;45.184;9.850;2022-12-18T00:47:39;51.83;;;31.30;;
54545;SDS011;40444;45.184;9.850;2022-12-18T00:50:08;58.13;;;33.20;;
54545;SDS011;40444;45.184;9.850;2022-12-18T00:52:40;59.22;;;34.65;;
54545;SDS011;40444;45.184;9.850;2022-12-18T00:55:08;54.30;;;32.17;;
54545;SDS011;40444;45.184;9.850;2022-12-18T00:57:37;50.05;;;31.60;;
54545;SDS011;40444;45.184;9.850;2022-12-18T01:00:07;52.58;;;31.98;;
54545;SDS011;40444;45.184;9.850;2022-12-18T01:02:38;54.47;;;31.15;;
54545;SDS011;40444;45.184;9.850;2022-12-18T01:05:08;53.78;;;31.20;;
54545;SDS011;40444;45.184;9.850;2022-12-18T01:07:38;47.45;;;30.83;;
54545;SDS011;40444;45.184;9.850;2022-12-18T01:10:07;43.22;;;26.30;;
54545;SDS011;40444;45.184;9.850;2022-12-18T01:12:37;42.05;;;25.92;;
54545;SDS011;40444;45.184;9.850;2022-12-18T01:15:06;46.63;;;27.42;;
54545;SDS011;40444;45.184;9.850;2022-12-18T01:17:34;44.42;;;26.23;;
54545;SDS011;40444;45.184;9.850;2022-12-18T01:20:03;44.35;;;26.45;;
54545;SDS011;40444;45.184;9.850;2022-12-18T01:22:33;37.83;;;24.38;;
54545;SDS011;40444;45.184;9.850;2022-12-18T01:25:03;38.50;;;24.98;;
54545;SDS011;40444;45.184;9.850;2022-12-18T01:27:33;40.97;;;25.23;;
54545;SDS011;40444;45.184;9.850;2022-12-18T01:30:03;38.00;;;24.80;;
54545;SDS011;40444;45.184;9.850;2022-12-18T01:32:32;41.47;;;25.67;;
54545;SDS011;40444;45.184;9.850;2022-12-18T01:35:02;40.42;;;25.17;;
54545;SDS011;40444;45.184;9.850;2022-12-18T01:37:30;42.03;;;25.25;;
54545;SDS011;40444;45.184;9.850;2022-12-18T01:39:58;42.30;;;24.92;;
54545;SDS011;40444;45.184;9.850;2022-12-18T01:42:26;39.83;;;24.55;;
54545;SDS011;40444;45.184;9.850;2022-12-18T01:50:55;44.65;;;25.33;;
54545;SDS011;40444;45.184;9.850;2022-12-18T01:53:03;41.22;;;25.27;;
54545;SDS011;40444;45.184;9.850;2022-12-18T01:58:16;43.07;;;25.90;;
54545;SDS011;40444;45.184;9.850;2022-12-18T02:00:45;43.22;;;24.73;;
54545;SDS011;40444;45.184;9.850;2022-12-18T02:03:14;45.92;;;26.50;;
54545;SDS011;40444;45.184;9.850;2022-12-18T02:05:46;41.03;;;24.45;;
54545;SDS011;40444;45.184;9.850;2022-12-18T02:11:03;35.97;;;23.90;;
54545;SDS011;40444;45.184;9.850;2022-12-18T02:13:46;39.80;;;23.83;;
54545;SDS011;40444;45.184;9.850;2022-12-18T02:18:56;36.35;;;24.42;;
54545;SDS011;40444;45.184;9.850;2022-12-18T02:21:38;39.30;;;24.13;;
54545;SDS011;40444;45.184;9.850;2022-12-18T02:27:21;36.00;;;23.55;;
54545;SDS011;40444;45.184;9.850;2022-12-18T02:29:51;38.40;;;23.92;;
54545;SDS011;40444;45.184;9.850;2022-12-18T02:32:28;36.83;;;23.42;;
54545;SDS011;40444;45.184;9.850;2022-12-18T02:35:02;40.03;;;23.95;;
54545;SDS011;40444;45.184;9.850;2022-12-18T02:37:34;42.92;;;25.48;;
54545;SDS011;40444;45.184;9.850;2022-12-18T02:40:06;40.00;;;23.20;;
54545;SDS011;40444;45.184;9.850;2022-12-18T02:42:37;38.35;;;23.45;;
54545;SDS011;40444;45.184;9.850;2022-12-18T02:45:07;40.72;;;24.30;;
54545;SDS011;40444;45.184;9.850;2022-12-18T02:47:37;40.30;;;23.83;;
54545;SDS011;40444;45.184;9.850;2022-12-18T02:59:05;37.25;;;22.85;;
54545;SDS011;40444;45.184;9.850;2022-12-18T03:02:04;40.92;;;23.23;;
54545;SDS011;40444;45.184;9.850;2022-12-18T03:08:15;36.60;;;21.70;;
54545;SDS011;40444;45.184;9.850;2022-12-18T03:10:40;37.90;;;22.70;;
54545;SDS011;40444;45.184;9.850;2022-12-18T03:13:17;45.38;;;25.27;;
54545;SDS011;40444;45.184;9.850;2022-12-18T03:15:54;39.53;;;24.23;;
54545;SDS011;40444;45.184;9.850;2022-12-18T03:18:25;41.03;;;24.08;;
54545;SDS011;40444;45.184;9.850;2022-12-18T03:21:02;37.95;;;22.67;;
54545;SDS011;40444;45.184;9.850;2022-12-18T03:23:38;40.28;;;23.85;;
54545;SDS011;40444;45.184;9.850;2022-12-18T03:28:49;39.40;;;22.67;;
54545;SDS011;40444;45.184;9.850;2022-12-18T03:31:28;40.70;;;23.05;;
54545;SDS011;40444;45.184;9.850;2022-12-18T03:33:59;37.85;;;22.65;;
54545;SDS011;40444;45.184;9.850;2022-12-18T03:36:40;39.08;;;23.48;;
54545;SDS011;40444;45.184;9.850;2022-12-18T03:39:08;42.78;;;22.75;;
54545;SDS011;40444;45.184;9.850;2022-12-18T03:41:47;41.97;;;22.85;;
54545;SDS011;40444;45.184;9.850;2022-12-18T03:44:40;41.40;;;24.20;;
54545;SDS011;40444;45.184;9.850;2022-12-18T03:47:17;38.65;;;24.25;;
54545;SDS011;40444;45.184;9.850;2022-12-18T03:50:13;38.72;;;23.75;;
54545;SDS011;40444;45.184;9.850;2022-12-18T03:52:49;40.63;;;23.10;;
54545;SDS011;40444;45.184;9.850;2022-12-18T03:55:19;37.80;;;21.88;;
54545;SDS011;40444;45.184;9.850;2022-12-18T03:57:56;38.90;;;23.70;;
54545;SDS011;40444;45.184;9.850;2022-12-18T04:00:32;38.38;;;22.67;;
54545;SDS011;40444;45.184;9.850;2022-12-18T04:03:07;41.08;;;23.15;;
54545;SDS011;40444;45.184;9.850;2022-12-18T04:05:42;41.08;;;25.20;;
54545;SDS011;40444;45.184;9.850;2022-12-18T04:08:12;38.25;;;23.00;;
54545;SDS011;40444;45.184;9.850;2022-12-18T16:30:56;55.22;;;26.80;;
54545;SDS011;40444;45.184;9.850;2022-12-18T16:33:25;76.20;;;32.65;;
54545;SDS011;40444;45.184;9.850;2022-12-18T16:35:53;73.10;;;33.13;;
54545;SDS011;40444;45.184;9.850;2022-12-18T16:38:22;62.10;;;31.42;;
54545;SDS011;40444;45.184;9.850;2022-12-18T16:40:53;56.53;;;27.83;;
54545;SDS011;40444;45.184;9.850;2022-12-18T16:43:39;51.30;;;26.47;;
54545;SDS011;40444;45.184;9.850;2022-12-18T16:46:08;50.72;;;26.80;;
54545;SDS011;40444;45.184;9.850;2022-12-18T16:48:37;50.92;;;25.55;;
54545;SDS011;40444;45.184;9.850;2022-12-18T16:51:05;42.92;;;22.45;;
54545;SDS011;40444;45.184;9.850;2022-12-18T16:53:34;38.35;;;20.85;;
54545;SDS011;40444;45.184;9.850;2022-12-18T16:56:03;40.05;;;20.90;;
54545;SDS011;40444;45.184;9.850;2022-12-18T16:58:33;35.22;;;20.38;;
54545;SDS011;40444;45.184;9.850;2022-12-18T17:01:09;37.65;;;20.83;;
54545;SDS011;40444;45.184;9.850;2022-12-18T17:03:56;39.17;;;22.30;;
54545;SDS011;40444;45.184;9.850;2022-12-18T17:06:29;40.78;;;21.52;;
54545;SDS011;40444;45.184;9.850;2022-12-18T17:09:07;38.13;;;22.23;;
54545;SDS011;40444;45.184;9.850;2022-12-18T17:11:40;40.65;;;22.67;;
54545;SDS011;40444;45.184;9.850;2022-12-18T17:14:12;40.33;;;22.83;;
54545;SDS011;40444;45.184;9.850;2022-12-18T17:16:42;37.70;;;22.27;;
54545;SDS011;40444;45.184;9.850;2022-12-18T17:19:12;39.88;;;21.25;;
54545;SDS011;40444;45.184;9.850;2022-12-18T17:21:44;40.58;;;21.17;;
54545;SDS011;40444;45.184;9.850;2022-12-18T17:24:17;40.70;;;21.98;;
54545;SDS011;40444;45.184;9.850;2022-12-18T17:26:47;36.45;;;21.25;;
54545;SDS011;40444;45.184;9.850;2022-12-18T17:29:18;34.33;;;19.42;;
54545;SDS011;40444;45.184;9.850;2022-12-18T17:31:49;35.00;;;20.23;;
54545;SDS011;40444;45.184;9.850;2022-12-18T17:34:17;35.58;;;20.75;;
54545;SDS011;40444;45.184;9.850;2022-12-18T17:36:47;45.38;;;24.55;;
54545;SDS011;40444;45.184;9.850;2022-12-18T17:39:17;47.70;;;26.20;;
54545;SDS011;40444;45.184;9.850;2022-12-18T17:41:47;47.63;;;25.45;;
54545;SDS011;40444;45.184;9.850;2022-12-18T17:44:16;48.03;;;25.02;;
54545;SDS011;40444;45.184;9.850;2022-12-18T17:46:45;51.55;;;25.15;;
54545;SDS011;40444;45.184;9.850;2022-12-18T17:49:13;46.72;;;23.05;;
54545;SDS011;40444;45.184;9.850;2022-12-18T17:51:41;49.80;;;26.80;;
54545;SDS011;40444;45.184;9.850;2022-12-18T17:54:10;55.38;;;28.88;;
54545;SDS011;40444;45.184;9.850;2022-12-18T17:56:38;53.22;;;28.25;;
54545;SDS011;40444;45.184;9.850;2022-12-18T17:59:07;50.83;;;26.17;;
54545;SDS011;40444;45.184;9.850;2022-12-18T18:01:36;56.53;;;28.58;;
54545;SDS011;40444;45.184;9.850;2022-12-18T18:04:11;51.67;;;26.75;;
54545;SDS011;40444;45.184;9.850;2022-12-18T18:06:41;61.30;;;28.98;;
54545;SDS011;40444;45.184;9.850;2022-12-18T18:09:12;52.00;;;26.45;;
54545;SDS011;40444;45.184;9.850;2022-12-18T18:11:43;44.65;;;25.00;;
54545;SDS011;40444;45.184;9.850;2022-12-18T18:14:33;47.15;;;26.33;;
54545;SDS011;40444;45.184;9.850;2022-12-18T18:17:04;46.80;;;25.92;;
54545;SDS011;40444;45.184;9.850;2022-12-18T18:19:32;45.70;;;24.70;;
54545;SDS011;40444;45.184;9.850;2022-12-18T18:22:01;43.63;;;25.17;;
54545;SDS011;40444;45.184;9.850;2022-12-18T18:24:30;45.67;;;25.38;;
54545;SDS011;40444;45.184;9.850;2022-12-18T18:27:01;43.72;;;24.85;;
54545;SDS011;40444;45.184;9.850;2022-12-18T18:29:30;43.05;;;24.98;;
54545;SDS011;40444;45.184;9.850;2022-12-18T18:32:02;43.63;;;25.50;;
54545;SDS011;40444;45.184;9.850;2022-12-18T18:34:36;40.72;;;23.23;;
54545;SDS011;40444;45.184;9.850;2022-12-18T18:37:05;38.03;;;22.88;;
54545;SDS011;40444;45.184;9.850;2022-12-18T18:39:34;34.20;;;21.75;;
54545;SDS011;40444;45.184;9.850;2022-12-18T18:42:03;42.80;;;25.45;;
54545;SDS011;40444;45.184;9.850;2022-12-18T18:44:52;48.00;;;27.20;;
54545;SDS011;40444;45.184;9.850;2022-12-18T18:47:56;49.78;;;28.40;;
54545;SDS011;40444;45.184;9.850;2022-12-18T18:50:30;41.75;;;24.38;;
54545;SDS011;40444;45.184;9.850;2022-12-18T18:56:31;57.53;;;31.98;;
54545;SDS011;40444;45.184;9.850;2022-12-18T18:59:30;94.38;;;49.67;;
54545;SDS011;40444;45.184;9.850;2022-12-18T19:02:14;84.10;;;40.38;;
54545;SDS011;40444;45.184;9.850;2022-12-18T19:04:59;77.10;;;41.40;;
54545;SDS011;40444;45.184;9.850;2022-12-18T19:07:43;64.57;;;36.33;;
54545;SDS011;40444;45.184;9.850;2022-12-18T19:10:17;46.95;;;27.55;;
54545;SDS011;40444;45.184;9.850;2022-12-18T19:13:00;49.72;;;29.55;;
54545;SDS011;40444;45.184;9.850;2022-12-18T19:15:53;52.08;;;28.90;;
54545;SDS011;40444;45.184;9.850;2022-12-18T19:18:24;51.67;;;30.10;;
54545;SDS011;40444;45.184;9.850;2022-12-18T19:21:05;50.88;;;30.02;;
54545;SDS011;40444;45.184;9.850;2022-12-18T19:23:37;47.67;;;28.27;;
54545;SDS011;40444;45.184;9.850;2022-12-18T19:26:07;55.42;;;31.17;;
54545;SDS011;40444;45.184;9.850;2022-12-18T19:29:04;50.88;;;30.10;;
54545;SDS011;40444;45.184;9.850;2022-12-18T19:31:48;55.75;;;31.23;;
54545;SDS011;40444;45.184;9.850;2022-12-18T19:34:22;49.45;;;27.52;;
54545;SDS011;40444;45.184;9.850;2022-12-18T19:36:50;52.50;;;29.15;;
54545;SDS011;40444;45.184;9.850;2022-12-18T19:39:26;48.58;;;27.95;;
54545;SDS011;40444;45.184;9.850;2022-12-18T19:42:10;50.38;;;26.15;;
54545;SDS011;40444;45.184;9.850;2022-12-18T19:44:56;52.10;;;27.10;;
54545;SDS011;40444;45.184;9.850;2022-12-18T19:47:44;52.15;;;28.15;;
54545;SDS011;40444;45.184;9.850;2022-12-18T19:50:52;54.63;;;27.00;;
54545;SDS011;40444;45.184;9.850;2022-12-18T19:53:34;48.08;;;26.30;;
54545;SDS011;40444;45.184;9.850;2022-12-18T19:56:21;46.45;;;25.65;;
54545;SDS011;40444;45.184;9.850;2022-12-18T19:59:08;48.90;;;26.40;;
54545;SDS011;40444;45.184;9.850;2022-12-18T20:01:53;45.47;;;24.95;;
54545;SDS011;40444;45.184;9.850;2022-12-18T20:04:38;52.38;;;26.60;;
54545;SDS011;40444;45.184;9.850;2022-12-18T20:07:10;49.92;;;27.13;;
54545;SDS011;40444;45.184;9.850;2022-12-18T20:09:56;47.40;;;24.55;;
54545;SDS011;40444;45.184;9.850;2022-12-18T20:12:39;47.17;;;25.08;;
54545;SDS011;40444;45.184;9.850;2022-12-18T20:15:21;47.53;;;24.92;;
54545;SDS011;40444;45.184;9.850;2022-12-18T20:18:03;51.45;;;26.25;;
54545;SDS011;40444;45.184;9.850;2022-12-18T20:20:35;51.63;;;25.73;;
54545;SDS011;40444;45.184;9.850;2022-12-18T20:23:17;52.10;;;25.27;;
54545;SDS011;40444;45.184;9.850;2022-12-18T20:26:00;47.47;;;24.50;;
54545;SDS011;40444;45.184;9.850;2022-12-18T20:28:42;53.03;;;26.85;;
54545;SDS011;40444;45.184;9.850;2022-12-18T20:31:24;48.03;;;26.45;;
54545;SDS011;40444;45.184;9.850;2022-12-18T20:33:54;54.35;;;27.25;;
54545;SDS011;40444;45.184;9.850;2022-12-18T20:36:29;53.72;;;28.05;;
54545;SDS011;40444;45.184;9.850;2022-12-18T20:38:59;56.25;;;28.33;;
54545;SDS011;40444;45.184;9.850;2022-12-18T20:41:41;55.80;;;28.60;;
54545;SDS011;40444;45.184;9.850;2022-12-18T20:44:14;57.95;;;28.15;;
54545;SDS011;40444;45.184;9.850;2022-12-18T20:46:55;51.47;;;26.63;;
54545;SDS011;40444;45.184;9.850;2022-12-18T20:49:41;56.95;;;30.02;;
54545;SDS011;40444;45.184;9.850;2022-12-18T20:52:21;52.10;;;27.52;;
54545;SDS011;40444;45.184;9.850;2022-12-18T20:55:04;56.80;;;29.85;;
54545;SDS011;40444;45.184;9.850;2022-12-18T20:57:48;65.45;;;31.05;;
54545;SDS011;40444;45.184;9.850;2022-12-18T21:00:32;67.35;;;33.35;;
54545;SDS011;40444;45.184;9.850;2022-12-18T21:03:03;65.90;;;34.20;;
54545;SDS011;40444;45.184;9.850;2022-12-18T21:05:39;75.60;;;35.63;;
54545;SDS011;40444;45.184;9.850;2022-12-18T21:08:21;66.47;;;34.53;;
54545;SDS011;40444;45.184;9.850;2022-12-18T21:10:53;77.68;;;37.60;;
54545;SDS011;40444;45.184;9.850;2022-12-18T21:16:11;74.55;;;35.13;;
54545;SDS011;40444;45.184;9.850;2022-12-18T21:18:49;81.78;;;39.55;;
54545;SDS011;40444;45.184;9.850;2022-12-18T21:21:26;96.20;;;48.13;;
54545;SDS011;40444;45.184;9.850;2022-12-18T21:24:09;70.57;;;36.15;;
54545;SDS011;40444;45.184;9.850;2022-12-18T21:26:52;70.28;;;33.47;;
54545;SDS011;40444;45.184;9.850;2022-12-18T21:29:35;71.13;;;32.13;;
54545;SDS011;40444;45.184;9.850;2022-12-18T21:32:18;70.03;;;32.38;;
54545;SDS011;40444;45.184;9.850;2022-12-18T21:34:50;70.75;;;34.13;;
54545;SDS011;40444;45.184;9.850;2022-12-18T21:37:33;74.90;;;36.10;;
54545;SDS011;40444;45.184;9.850;2022-12-18T21:40:06;69.30;;;33.42;;
54545;SDS011;40444;45.184;9.850;2022-12-18T21:42:49;72.97;;;33.45;;
54545;SDS011;40444;45.184;9.850;2022-12-18T21:45:49;70.05;;;32.30;;
54545;SDS011;40444;45.184;9.850;2022-12-18T21:48:38;68.43;;;30.95;;
54545;SDS011;40444;45.184;9.850;2022-12-18T21:51:07;64.93;;;30.75;;
54545;SDS011;40444;45.184;9.850;2022-12-18T21:53:36;86.53;;;35.55;;
54545;SDS011;40444;45.184;9.850;2022-12-18T21:56:05;62.92;;;29.52;;
54545;SDS011;40444;45.184;9.850;2022-12-18T21:58:33;73.57;;;32.25;;
54545;SDS011;40444;45.184;9.850;2022-12-18T22:01:15;62.95;;;30.38;;
54545;SDS011;40444;45.184;9.850;2022-12-18T22:03:58;68.30;;;30.52;;
54545;SDS011;40444;45.184;9.850;2022-12-18T22:06:26;63.22;;;30.17;;
54545;SDS011;40444;45.184;9.850;2022-12-18T22:08:55;65.15;;;29.38;;
54545;SDS011;40444;45.184;9.850;2022-12-18T22:11:23;62.80;;;29.23;;
54545;SDS011;40444;45.184;9.850;2022-12-18T22:13:51;74.72;;;35.30;;
54545;SDS011;40444;45.184;9.850;2022-12-18T22:16:20;82.93;;;38.30;;
54545;SDS011;40444;45.184;9.850;2022-12-18T22:18:49;74.82;;;36.20;;
54545;SDS011;40444;45.184;9.850;2022-12-18T22:23:56;67.65;;;34.00;;
54545;SDS011;40444;45.184;9.850;2022-12-18T22:26:30;69.80;;;34.65;;
54545;SDS011;40444;45.184;9.850;2022-12-18T22:31:57;74.97;;;35.25;;
54545;SDS011;40444;45.184;9.850;2022-12-18T22:34:26;93.38;;;41.03;;
54545;SDS011;40444;45.184;9.850;2022-12-18T22:36:55;91.88;;;43.35;;
54545;SDS011;40444;45.184;9.850;2022-12-18T22:39:25;80.43;;;37.28;;
54545;SDS011;40444;45.184;9.850;2022-12-18T22:41:57;61.28;;;28.67;;
54545;SDS011;40444;45.184;9.850;2022-12-18T22:44:35;52.70;;;27.67;;
54545;SDS011;40444;45.184;9.850;2022-12-18T22:47:03;49.08;;;24.23;;
54545;SDS011;40444;45.184;9.850;2022-12-18T22:49:34;46.15;;;24.30;;
54545;SDS011;40444;45.184;9.850;2022-12-18T22:52:05;54.65;;;27.30;;
54545;SDS011;40444;45.184;9.850;2022-12-18T22:54:49;52.90;;;25.73;;
54545;SDS011;40444;45.184;9.850;2022-12-18T22:57:20;52.60;;;25.83;;
54545;SDS011;40444;45.184;9.850;2022-12-18T22:59:51;49.00;;;26.80;;
54545;SDS011;40444;45.184;9.850;2022-12-18T23:02:20;46.47;;;24.55;;
54545;SDS011;40444;45.184;9.850;2022-12-18T23:04:49;44.67;;;25.00;;
54545;SDS011;40444;45.184;9.850;2022-12-18T23:07:17;48.67;;;24.65;;
54545;SDS011;40444;45.184;9.850;2022-12-18T23:09:47;45.70;;;23.83;;
54545;SDS011;40444;45.184;9.850;2022-12-18T23:12:26;50.20;;;26.30;;
54545;SDS011;40444;45.184;9.850;2022-12-18T23:14:55;47.33;;;25.77;;
54545;SDS011;40444;45.184;9.850;2022-12-18T23:17:23;52.58;;;26.75;;
54545;SDS011;40444;45.184;9.850;2022-12-18T23:19:52;50.40;;;27.48;;
54545;SDS011;40444;45.184;9.850;2022-12-18T23:22:35;52.78;;;28.27;;
54545;SDS011;40444;45.184;9.850;2022-12-18T23:25:13;52.28;;;28.17;;
54545;SDS011;40444;45.184;9.850;2022-12-18T23:27:42;50.85;;;26.65;;
54545;SDS011;40444;45.184;9.850;2022-12-18T23:30:10;46.80;;;25.88;;
54545;SDS011;40444;45.184;9.850;2022-12-18T23:32:39;49.42;;;27.52;;
54545;SDS011;40444;45.184;9.850;2022-12-18T23:35:07;50.55;;;26.85;;
54545;SDS011;40444;45.184;9.850;2022-12-18T23:37:39;48.55;;;26.25;;
54545;SDS011;40444;45.184;9.850;2022-12-18T23:40:27;52.70;;;26.33;;
54545;SDS011;40444;45.184;9.850;2022-12-18T23:42:57;49.80;;;27.80;;
54545;SDS011;40444;45.184;9.850;2022-12-18T23:45:26;52.55;;;26.95;;
54545;SDS011;40444;45.184;9.850;2022-12-18T23:47:55;53.00;;;27.55;;
54545;SDS011;40444;45.184;9.850;2022-12-18T23:50:35;48.97;;;25.83;;
54545;SDS011;40444;45.184;9.850;2022-12-18T23:53:13;46.38;;;25.73;;
54545;SDS011;40444;45.184;9.850;2022-12-18T23:55:42;46.85;;;26.40;;
54545;SDS011;40444;45.184;9.850;2022-12-18T23:58:26;46.75;;;26.13;;
